Monument Lake Park, Colorado
Current Conditions -  °F | °C
As of 2:11 AM on Thursday 27 Nov 2014 (Local Time) from KVTP Reporting Station
Clear Clear  
Wind Chill: -7°   Ceiling: Unl
Heat Index: -1°   Visibility: 10mi
Dew Point: -8°   Wind: 15mph
Humidity: 60%   Direction: 200°SSW
Pressure: 30.46"   Gusts: 28mph
Location:  37.1566°N, 104.956°W
Report Text: KVTP 270911Z AUTO 20013G24KT 170V240 10SM CLR M01/M08 A3046 RMK AO2
Loading
Personal Weather Stations






























Interactive Weather Map New forecast layout! Learn more

10-Day Weather Forecast

Advertisements
Track Severe Weather on mobile